Manhattan Beach, Minnesota
Current Conditions -  °F | °C
As of 7:13 PM on Friday 28 Nov 2014 (Local Time) from KPWC Reporting Station
Overcast Overcast  
Wind Chill:   Ceiling: 2800
Heat Index: 16°   Visibility: 10mi
Dew Point: 10°   Wind: 12mph
Humidity: 79%   Direction: 130°SE
Pressure: 29.8"   Gusts: NA
Location:  46.7336°N, 94.1401°W
Report Text: KPWC 290113Z AUTO 13010KT 10SM OVC028 M09/M12 A2980 RMK AO2
Loading
Personal Weather Stations






























Interactive Weather Map New forecast layout! Learn more

10-Day Weather Forecast

Advertisements
Track Severe Weather on mobile